Connellsville, PA (15425)

12:01 PM EDT on August 20, 2017 (GMT -0400)
West Side | | Change Station

Elev 919 ft 40.01 °N, 79.60 °W | Updated 26 seconds ago

Clear
Clear
82.6 °F
Feels Like 83 °F
N
1.0
Wind Variable Wind from ESE

Today
High -- | Low -- °F
--% Chance of Precip.
Yesterday
High -- | Low -- °F
Precip. -- in
Pressure 30.19 in
Visibility 20.0 miles
Clouds Clear
Heat Index 83 °F
Dew Point 62 °F
Humidity 50%
Rainfall 0.00 in
Snow Depth Not available.
6:34 AM 8:07 PM
Waning Crescent, 2% visible
METAR KLBE 201547Z 00000KT 20SM SKC 24/14 A3019
Pressure 30.19 in
Visibility 20.0 miles
Clouds Clear
Heat Index 83 °F
Dew Point 62 °F
Humidity 50%
Rainfall 0.00 in
Snow Depth Not available.
6:34 AM 8:07 PM
Waning Crescent, 2% visible
METAR KLBE 201547Z 00000KT 20SM SKC 24/14 A3019

Get Severe Weather Alerts

Thanks for signing up!

Be on the lookout for a verification email in your inbox.

You'll start receiving the daily forecast at 6 AM.

×

10-Day Weather Forecast

Almanac

Astronomy

Aug. 20, 2017 Rise Set
Actual Time
Civil Twilight
Nautical Twilight
Astronomical Twilight
Moon
Length of Visible Light
Length of Day
Tomorrow will be .
, % of the Moon is Illuminated

Today's Extremes

State Highs State Lows

Community

WunderPhotos

Category 6

Welcome to Category 6. This is the collective home for Weather Underground's featured writeups by Dr. Jeff Masters (right), Bob Henson (left), Chris Burt, and other regular contributors.

Nearby

Air Quality

  Air Quality AQ Index Pollutant
Not available.

Snow Depth

Station Depth Elevation

Earthquake Activity

City Distance Mag. Time & Date
Minimum magnitude displayed is 2.5.

Coastal Water Temperatures

Place Temperature

Stations

Nearby Weather Stations

Station Location Temp. Windchill Dew Point Humidity Wind Precip. Elev Updated Type
                   

Watches & Warnings

There are currently no watches in effect.